sensor_id;sensor_type;location;lat;lon;timestamp;P1;durP1;ratioP1;P2;durP2;ratioP2
8048;SDS011;20935;42.660;23.342;2022-12-26T00:00:42;28.00;;;19.43;;
8048;SDS011;20935;42.660;23.342;2022-12-26T00:03:07;27.33;;;18.67;;
8048;SDS011;20935;42.660;23.342;2022-12-26T00:05:35;28.03;;;18.67;;
8048;SDS011;20935;42.660;23.342;2022-12-26T00:08:01;35.60;;;20.23;;
8048;SDS011;20935;42.660;23.342;2022-12-26T00:10:26;29.60;;;20.90;;
8048;SDS011;20935;42.660;23.342;2022-12-26T00:12:51;35.00;;;21.07;;
8048;SDS011;20935;42.660;23.342;2022-12-26T00:15:17;33.50;;;20.97;;
8048;SDS011;20935;42.660;23.342;2022-12-26T00:17:43;33.33;;;19.50;;
8048;SDS011;20935;42.660;23.342;2022-12-26T00:20:08;32.60;;;21.77;;
8048;SDS011;20935;42.660;23.342;2022-12-26T00:22:33;36.40;;;22.43;;
8048;SDS011;20935;42.660;23.342;2022-12-26T00:24:59;41.73;;;22.77;;
8048;SDS011;20935;42.660;23.342;2022-12-26T00:27:24;36.23;;;22.93;;
8048;SDS011;20935;42.660;23.342;2022-12-26T00:29:49;38.50;;;23.50;;
8048;SDS011;20935;42.660;23.342;2022-12-26T00:32:14;33.57;;;23.27;;
8048;SDS011;20935;42.660;23.342;2022-12-26T00:34:40;40.77;;;23.87;;
8048;SDS011;20935;42.660;23.342;2022-12-26T00:37:05;41.57;;;24.57;;
8048;SDS011;20935;42.660;23.342;2022-12-26T00:39:30;36.70;;;22.47;;
8048;SDS011;20935;42.660;23.342;2022-12-26T00:41:55;33.43;;;21.83;;
8048;SDS011;20935;42.660;23.342;2022-12-26T00:44:21;38.60;;;24.47;;
8048;SDS011;20935;42.660;23.342;2022-12-26T00:46:46;32.53;;;23.07;;
8048;SDS011;20935;42.660;23.342;2022-12-26T00:49:11;37.10;;;25.13;;
8048;SDS011;20935;42.660;23.342;2022-12-26T00:51:36;39.10;;;24.73;;
8048;SDS011;20935;42.660;23.342;2022-12-26T00:54:01;51.10;;;28.00;;
8048;SDS011;20935;42.660;23.342;2022-12-26T00:56:27;34.83;;;24.27;;
8048;SDS011;20935;42.660;23.342;2022-12-26T00:58:52;31.97;;;23.00;;
8048;SDS011;20935;42.660;23.342;2022-12-26T01:01:18;35.93;;;24.27;;
8048;SDS011;20935;42.660;23.342;2022-12-26T01:03:45;41.07;;;25.37;;
8048;SDS011;20935;42.660;23.342;2022-12-26T01:06:10;37.93;;;25.27;;
8048;SDS011;20935;42.660;23.342;2022-12-26T01:08:36;38.00;;;24.83;;
8048;SDS011;20935;42.660;23.342;2022-12-26T01:11:02;40.73;;;25.83;;
8048;SDS011;20935;42.660;23.342;2022-12-26T01:13:28;42.17;;;26.37;;
8048;SDS011;20935;42.660;23.342;2022-12-26T01:15:53;43.33;;;28.07;;
8048;SDS011;20935;42.660;23.342;2022-12-26T01:18:19;41.47;;;28.57;;
8048;SDS011;20935;42.660;23.342;2022-12-26T01:20:44;38.90;;;26.03;;
8048;SDS011;20935;42.660;23.342;2022-12-26T01:23:10;38.93;;;26.27;;
8048;SDS011;20935;42.660;23.342;2022-12-26T01:25:35;37.20;;;24.80;;
8048;SDS011;20935;42.660;23.342;2022-12-26T01:28:00;40.33;;;27.33;;
8048;SDS011;20935;42.660;23.342;2022-12-26T01:30:25;42.27;;;25.77;;
8048;SDS011;20935;42.660;23.342;2022-12-26T01:32:51;35.50;;;24.43;;
8048;SDS011;20935;42.660;23.342;2022-12-26T01:35:16;40.73;;;24.83;;
8048;SDS011;20935;42.660;23.342;2022-12-26T01:37:41;43.50;;;26.07;;
8048;SDS011;20935;42.660;23.342;2022-12-26T01:40:06;36.97;;;24.37;;
8048;SDS011;20935;42.660;23.342;2022-12-26T01:42:37;41.27;;;25.70;;
8048;SDS011;20935;42.660;23.342;2022-12-26T01:45:35;34.63;;;23.90;;
8048;SDS011;20935;42.660;23.342;2022-12-26T01:50:43;35.57;;;24.10;;
8048;SDS011;20935;42.660;23.342;2022-12-26T01:53:11;36.17;;;24.10;;
8048;SDS011;20935;42.660;23.342;2022-12-26T01:55:36;34.67;;;25.30;;
8048;SDS011;20935;42.660;23.342;2022-12-26T01:58:13;35.90;;;24.30;;
8048;SDS011;20935;42.660;23.342;2022-12-26T02:00:39;38.13;;;26.50;;
8048;SDS011;20935;42.660;23.342;2022-12-26T02:03:05;35.53;;;24.80;;
8048;SDS011;20935;42.660;23.342;2022-12-26T02:05:50;37.70;;;24.80;;
8048;SDS011;20935;42.660;23.342;2022-12-26T02:08:17;38.60;;;26.07;;
8048;SDS011;20935;42.660;23.342;2022-12-26T02:10:49;33.67;;;23.17;;
8048;SDS011;20935;42.660;23.342;2022-12-26T02:13:16;33.60;;;24.40;;
8048;SDS011;20935;42.660;23.342;2022-12-26T02:15:42;38.37;;;24.53;;
8048;SDS011;20935;42.660;23.342;2022-12-26T02:18:07;42.27;;;26.23;;
8048;SDS011;20935;42.660;23.342;2022-12-26T02:20:37;33.20;;;23.93;;
8048;SDS011;20935;42.660;23.342;2022-12-26T02:30:43;36.90;;;24.87;;
8048;SDS011;20935;42.660;23.342;2022-12-26T02:33:24;35.37;;;24.37;;
8048;SDS011;20935;42.660;23.342;2022-12-26T02:38:39;35.40;;;23.70;;
8048;SDS011;20935;42.660;23.342;2022-12-26T02:43:53;37.30;;;24.47;;
8048;SDS011;20935;42.660;23.342;2022-12-26T02:46:36;29.97;;;22.77;;
8048;SDS011;20935;42.660;23.342;2022-12-26T02:52:28;33.63;;;23.97;;
8048;SDS011;20935;42.660;23.342;2022-12-26T02:55:14;31.93;;;21.97;;
8048;SDS011;20935;42.660;23.342;2022-12-26T03:01:19;31.10;;;21.23;;
8048;SDS011;20935;42.660;23.342;2022-12-26T03:04:03;31.43;;;21.63;;
8048;SDS011;20935;42.660;23.342;2022-12-26T03:06:53;34.53;;;21.63;;
8048;SDS011;20935;42.660;23.342;2022-12-26T03:09:38;34.37;;;23.40;;
8048;SDS011;20935;42.660;23.342;2022-12-26T03:15:14;34.93;;;22.93;;
8048;SDS011;20935;42.660;23.342;2022-12-26T03:17:41;34.13;;;22.80;;
8048;SDS011;20935;42.660;23.342;2022-12-26T03:20:09;34.47;;;22.17;;
8048;SDS011;20935;42.660;23.342;2022-12-26T03:25:05;28.83;;;20.17;;
8048;SDS011;20935;42.660;23.342;2022-12-26T03:27:49;31.80;;;22.60;;
8048;SDS011;20935;42.660;23.342;2022-12-26T03:30:14;31.67;;;20.80;;
8048;SDS011;20935;42.660;23.342;2022-12-26T03:32:58;29.17;;;20.77;;
8048;SDS011;20935;42.660;23.342;2022-12-26T03:35:28;30.90;;;23.37;;
8048;SDS011;20935;42.660;23.342;2022-12-26T03:38:05;31.87;;;22.97;;
8048;SDS011;20935;42.660;23.342;2022-12-26T03:43:50;33.83;;;21.57;;
8048;SDS011;20935;42.660;23.342;2022-12-26T03:46:49;30.13;;;21.00;;
8048;SDS011;20935;42.660;23.342;2022-12-26T03:49:44;31.13;;;22.27;;
8048;SDS011;20935;42.660;23.342;2022-12-26T04:00:47;29.93;;;20.40;;
8048;SDS011;20935;42.660;23.342;2022-12-26T04:03:31;30.20;;;20.53;;
8048;SDS011;20935;42.660;23.342;2022-12-26T04:06:21;29.70;;;18.37;;
8048;SDS011;20935;42.660;23.342;2022-12-26T04:09:18;29.40;;;21.57;;
8048;SDS011;20935;42.660;23.342;2022-12-26T04:12:03;27.73;;;18.93;;
8048;SDS011;20935;42.660;23.342;2022-12-26T04:14:56;30.90;;;20.90;;
8048;SDS011;20935;42.660;23.342;2022-12-26T04:25:51;25.57;;;19.30;;
8048;SDS011;20935;42.660;23.342;2022-12-26T04:28:37;29.93;;;20.53;;
8048;SDS011;20935;42.660;23.342;2022-12-26T04:31:26;29.67;;;21.37;;
8048;SDS011;20935;42.660;23.342;2022-12-26T04:34:18;34.27;;;22.23;;
8048;SDS011;20935;42.660;23.342;2022-12-26T04:37:04;30.33;;;20.63;;
8048;SDS011;20935;42.660;23.342;2022-12-26T04:39:49;30.77;;;21.37;;
8048;SDS011;20935;42.660;23.342;2022-12-26T04:42:33;29.67;;;19.37;;
8048;SDS011;20935;42.660;23.342;2022-12-26T04:45:18;28.67;;;19.67;;
8048;SDS011;20935;42.660;23.342;2022-12-26T04:47:44;29.13;;;21.37;;
8048;SDS011;20935;42.660;23.342;2022-12-26T04:50:29;29.70;;;19.93;;
8048;SDS011;20935;42.660;23.342;2022-12-26T04:52:55;35.27;;;21.17;;
8048;SDS011;20935;42.660;23.342;2022-12-26T04:55:25;32.57;;;20.53;;
8048;SDS011;20935;42.660;23.342;2022-12-26T04:57:50;32.70;;;22.50;;
8048;SDS011;20935;42.660;23.342;2022-12-26T05:00:16;32.67;;;22.97;;
8048;SDS011;20935;42.660;23.342;2022-12-26T05:02:41;30.70;;;22.20;;
8048;SDS011;20935;42.660;23.342;2022-12-26T05:05:25;38.37;;;22.37;;
8048;SDS011;20935;42.660;23.342;2022-12-26T05:08:18;29.87;;;21.07;;
8048;SDS011;20935;42.660;23.342;2022-12-26T05:11:04;38.47;;;22.00;;
8048;SDS011;20935;42.660;23.342;2022-12-26T05:13:29;28.23;;;20.90;;
8048;SDS011;20935;42.660;23.342;2022-12-26T05:15:58;31.63;;;20.43;;
8048;SDS011;20935;42.660;23.342;2022-12-26T05:18:41;30.70;;;21.73;;
8048;SDS011;20935;42.660;23.342;2022-12-26T05:21:25;29.03;;;21.00;;
8048;SDS011;20935;42.660;23.342;2022-12-26T05:24:09;31.40;;;20.60;;
8048;SDS011;20935;42.660;23.342;2022-12-26T05:26:53;32.13;;;21.30;;
8048;SDS011;20935;42.660;23.342;2022-12-26T05:29:37;30.63;;;21.87;;
8048;SDS011;20935;42.660;23.342;2022-12-26T05:32:02;32.47;;;22.00;;
8048;SDS011;20935;42.660;23.342;2022-12-26T05:34:28;31.67;;;21.33;;
8048;SDS011;20935;42.660;23.342;2022-12-26T05:36:53;31.83;;;21.30;;
8048;SDS011;20935;42.660;23.342;2022-12-26T05:39:20;29.40;;;20.40;;
8048;SDS011;20935;42.660;23.342;2022-12-26T05:41:46;29.93;;;20.57;;
8048;SDS011;20935;42.660;23.342;2022-12-26T05:44:11;28.70;;;20.23;;
8048;SDS011;20935;42.660;23.342;2022-12-26T05:46:37;32.40;;;21.00;;
8048;SDS011;20935;42.660;23.342;2022-12-26T05:49:03;31.23;;;20.77;;
8048;SDS011;20935;42.660;23.342;2022-12-26T05:51:28;32.93;;;21.77;;
8048;SDS011;20935;42.660;23.342;2022-12-26T05:53:53;32.00;;;22.03;;
8048;SDS011;20935;42.660;23.342;2022-12-26T05:56:19;30.70;;;20.83;;
8048;SDS011;20935;42.660;23.342;2022-12-26T05:58:45;30.30;;;20.33;;
8048;SDS011;20935;42.660;23.342;2022-12-26T06:01:17;30.93;;;19.90;;
8048;SDS011;20935;42.660;23.342;2022-12-26T06:03:47;34.43;;;22.00;;
8048;SDS011;20935;42.660;23.342;2022-12-26T06:06:13;32.70;;;20.20;;
8048;SDS011;20935;42.660;23.342;2022-12-26T06:08:38;30.17;;;21.53;;
8048;SDS011;20935;42.660;23.342;2022-12-26T06:11:07;30.03;;;20.97;;
8048;SDS011;20935;42.660;23.342;2022-12-26T06:13:33;30.87;;;20.93;;
8048;SDS011;20935;42.660;23.342;2022-12-26T06:16:02;30.73;;;21.17;;
8048;SDS011;20935;42.660;23.342;2022-12-26T06:18:27;29.83;;;21.60;;
8048;SDS011;20935;42.660;23.342;2022-12-26T06:20:53;31.87;;;21.20;;
8048;SDS011;20935;42.660;23.342;2022-12-26T06:23:18;29.63;;;21.90;;
8048;SDS011;20935;42.660;23.342;2022-12-26T06:25:43;28.80;;;20.50;;
8048;SDS011;20935;42.660;23.342;2022-12-26T06:28:08;29.07;;;20.37;;
8048;SDS011;20935;42.660;23.342;2022-12-26T06:30:34;28.13;;;19.43;;
8048;SDS011;20935;42.660;23.342;2022-12-26T06:32:59;29.03;;;19.87;;
8048;SDS011;20935;42.660;23.342;2022-12-26T06:35:24;26.57;;;19.50;;
8048;SDS011;20935;42.660;23.342;2022-12-26T06:37:49;30.10;;;20.67;;
8048;SDS011;20935;42.660;23.342;2022-12-26T06:40:15;39.23;;;20.83;;
8048;SDS011;20935;42.660;23.342;2022-12-26T06:42:40;29.57;;;21.63;;
8048;SDS011;20935;42.660;23.342;2022-12-26T06:45:05;30.37;;;20.60;;
8048;SDS011;20935;42.660;23.342;2022-12-26T06:47:31;30.47;;;21.50;;
8048;SDS011;20935;42.660;23.342;2022-12-26T06:49:56;29.67;;;20.77;;
8048;SDS011;20935;42.660;23.342;2022-12-26T06:52:21;28.57;;;20.93;;
8048;SDS011;20935;42.660;23.342;2022-12-26T06:54:46;26.30;;;20.77;;
8048;SDS011;20935;42.660;23.342;2022-12-26T06:57:12;33.60;;;21.97;;
8048;SDS011;20935;42.660;23.342;2022-12-26T06:59:37;31.47;;;21.27;;
8048;SDS011;20935;42.660;23.342;2022-12-26T07:02:02;29.47;;;21.23;;
8048;SDS011;20935;42.660;23.342;2022-12-26T07:04:27;30.33;;;21.40;;
8048;SDS011;20935;42.660;23.342;2022-12-26T07:06:53;33.30;;;20.40;;
8048;SDS011;20935;42.660;23.342;2022-12-26T07:09:18;31.80;;;21.53;;
8048;SDS011;20935;42.660;23.342;2022-12-26T07:11:44;28.63;;;19.77;;
8048;SDS011;20935;42.660;23.342;2022-12-26T07:14:10;30.77;;;20.30;;
8048;SDS011;20935;42.660;23.342;2022-12-26T07:16:36;31.40;;;21.07;;
8048;SDS011;20935;42.660;23.342;2022-12-26T07:19:02;31.47;;;20.33;;
8048;SDS011;20935;42.660;23.342;2022-12-26T07:21:27;28.33;;;20.13;;
8048;SDS011;20935;42.660;23.342;2022-12-26T07:23:53;27.53;;;19.17;;
8048;SDS011;20935;42.660;23.342;2022-12-26T07:26:18;34.50;;;19.30;;
8048;SDS011;20935;42.660;23.342;2022-12-26T07:28:43;31.73;;;18.83;;
8048;SDS011;20935;42.660;23.342;2022-12-26T07:31:08;29.43;;;18.63;;
8048;SDS011;20935;42.660;23.342;2022-12-26T07:33:34;29.30;;;19.70;;
8048;SDS011;20935;42.660;23.342;2022-12-26T07:35:59;31.73;;;19.00;;
8048;SDS011;20935;42.660;23.342;2022-12-26T07:38:25;29.60;;;21.57;;
8048;SDS011;20935;42.660;23.342;2022-12-26T07:40:50;30.30;;;20.50;;
8048;SDS011;20935;42.660;23.342;2022-12-26T07:43:15;30.47;;;20.97;;
8048;SDS011;20935;42.660;23.342;2022-12-26T07:45:40;30.63;;;22.67;;
8048;SDS011;20935;42.660;23.342;2022-12-26T07:48:06;32.90;;;21.73;;
8048;SDS011;20935;42.660;23.342;2022-12-26T07:50:31;32.67;;;20.80;;
8048;SDS011;20935;42.660;23.342;2022-12-26T07:52:57;28.37;;;20.33;;
8048;SDS011;20935;42.660;23.342;2022-12-26T07:55:23;26.53;;;18.93;;
8048;SDS011;20935;42.660;23.342;2022-12-26T07:57:49;25.70;;;18.27;;
8048;SDS011;20935;42.660;23.342;2022-12-26T08:00:14;28.47;;;19.87;;
8048;SDS011;20935;42.660;23.342;2022-12-26T08:02:39;31.37;;;20.37;;
8048;SDS011;20935;42.660;23.342;2022-12-26T08:05:05;23.00;;;18.53;;
8048;SDS011;20935;42.660;23.342;2022-12-26T08:07:30;26.07;;;19.37;;
8048;SDS011;20935;42.660;23.342;2022-12-26T08:09:55;25.87;;;17.77;;
8048;SDS011;20935;42.660;23.342;2022-12-26T08:12:21;24.93;;;19.17;;
8048;SDS011;20935;42.660;23.342;2022-12-26T08:14:48;28.00;;;19.43;;
8048;SDS011;20935;42.660;23.342;2022-12-26T08:17:14;26.03;;;18.77;;
8048;SDS011;20935;42.660;23.342;2022-12-26T08:19:39;24.33;;;18.87;;
8048;SDS011;20935;42.660;23.342;2022-12-26T08:22:04;24.97;;;18.27;;
8048;SDS011;20935;42.660;23.342;2022-12-26T08:24:29;25.47;;;17.33;;
8048;SDS011;20935;42.660;23.342;2022-12-26T08:26:55;24.37;;;17.70;;
8048;SDS011;20935;42.660;23.342;2022-12-26T08:29:20;22.63;;;17.27;;
8048;SDS011;20935;42.660;23.342;2022-12-26T08:31:45;23.07;;;15.13;;
8048;SDS011;20935;42.660;23.342;2022-12-26T08:34:10;20.90;;;16.23;;
8048;SDS011;20935;42.660;23.342;2022-12-26T08:36:39;24.43;;;16.13;;
8048;SDS011;20935;42.660;23.342;2022-12-26T08:39:04;19.67;;;15.17;;
8048;SDS011;20935;42.660;23.342;2022-12-26T08:41:29;21.60;;;16.50;;
8048;SDS011;20935;42.660;23.342;2022-12-26T08:43:55;21.90;;;15.23;;
8048;SDS011;20935;42.660;23.342;2022-12-26T08:46:20;23.03;;;14.70;;
8048;SDS011;20935;42.660;23.342;2022-12-26T08:48:46;20.93;;;14.63;;
8048;SDS011;20935;42.660;23.342;2022-12-26T08:51:13;24.30;;;16.93;;
8048;SDS011;20935;42.660;23.342;2022-12-26T08:53:38;21.17;;;15.07;;
8048;SDS011;20935;42.660;23.342;2022-12-26T08:56:04;21.57;;;15.10;;
8048;SDS011;20935;42.660;23.342;2022-12-26T08:58:30;19.13;;;14.10;;
8048;SDS011;20935;42.660;23.342;2022-12-26T09:01:04;23.27;;;17.30;;
8048;SDS011;20935;42.660;23.342;2022-12-26T09:03:29;22.40;;;17.87;;
8048;SDS011;20935;42.660;23.342;2022-12-26T09:05:57;22.70;;;17.27;;
8048;SDS011;20935;42.660;23.342;2022-12-26T09:08:23;22.20;;;17.40;;
8048;SDS011;20935;42.660;23.342;2022-12-26T09:10:48;25.20;;;17.30;;
8048;SDS011;20935;42.660;23.342;2022-12-26T09:13:13;21.33;;;17.57;;
8048;SDS011;20935;42.660;23.342;2022-12-26T09:15:38;22.87;;;17.73;;
8048;SDS011;20935;42.660;23.342;2022-12-26T09:18:03;24.87;;;18.73;;
8048;SDS011;20935;42.660;23.342;2022-12-26T09:20:29;27.13;;;19.17;;
8048;SDS011;20935;42.660;23.342;2022-12-26T09:22:54;22.83;;;19.10;;
8048;SDS011;20935;42.660;23.342;2022-12-26T09:25:23;27.40;;;20.53;;
8048;SDS011;20935;42.660;23.342;2022-12-26T09:27:49;24.87;;;20.20;;
8048;SDS011;20935;42.660;23.342;2022-12-26T09:30:17;26.93;;;19.07;;
8048;SDS011;20935;42.660;23.342;2022-12-26T09:32:42;27.43;;;20.63;;
8048;SDS011;20935;42.660;23.342;2022-12-26T09:35:08;25.13;;;20.87;;
8048;SDS011;20935;42.660;23.342;2022-12-26T09:37:33;28.97;;;19.97;;
8048;SDS011;20935;42.660;23.342;2022-12-26T09:39:58;26.97;;;20.47;;
8048;SDS011;20935;42.660;23.342;2022-12-26T09:42:45;25.43;;;19.57;;
8048;SDS011;20935;42.660;23.342;2022-12-26T09:45:14;24.60;;;19.00;;
8048;SDS011;20935;42.660;23.342;2022-12-26T09:54:56;29.50;;;20.30;;
8048;SDS011;20935;42.660;23.342;2022-12-26T09:57:25;23.33;;;19.03;;
8048;SDS011;20935;42.660;23.342;2022-12-26T09:59:55;24.70;;;19.47;;
8048;SDS011;20935;42.660;23.342;2022-12-26T10:02:22;24.17;;;20.00;;
8048;SDS011;20935;42.660;23.342;2022-12-26T10:04:48;22.60;;;17.57;;
8048;SDS011;20935;42.660;23.342;2022-12-26T10:25:19;24.17;;;15.77;;
8048;SDS011;20935;42.660;23.342;2022-12-26T10:27:47;18.37;;;13.40;;
8048;SDS011;20935;42.660;23.342;2022-12-26T10:30:14;21.07;;;14.37;;
8048;SDS011;20935;42.660;23.342;2022-12-26T10:32:45;18.23;;;13.30;;
8048;SDS011;20935;42.660;23.342;2022-12-26T10:35:19;15.13;;;12.70;;
8048;SDS011;20935;42.660;23.342;2022-12-26T10:37:46;18.17;;;12.97;;
8048;SDS011;20935;42.660;23.342;2022-12-26T10:40:20;17.57;;;12.47;;
8048;SDS011;20935;42.660;23.342;2022-12-26T10:42:48;14.60;;;11.80;;
8048;SDS011;20935;42.660;23.342;2022-12-26T10:47:46;12.23;;;9.63;;
8048;SDS011;20935;42.660;23.342;2022-12-26T10:50:15;8.60;;;7.00;;
8048;SDS011;20935;42.660;23.342;2022-12-26T10:52:41;10.93;;;8.80;;
8048;SDS011;20935;42.660;23.342;2022-12-26T10:55:11;12.10;;;8.83;;
8048;SDS011;20935;42.660;23.342;2022-12-26T10:57:37;17.40;;;10.57;;
8048;SDS011;20935;42.660;23.342;2022-12-26T11:00:16;14.73;;;9.77;;
8048;SDS011;20935;42.660;23.342;2022-12-26T11:02:42;14.97;;;9.87;;
8048;SDS011;20935;42.660;23.342;2022-12-26T11:05:09;13.03;;;10.17;;
8048;SDS011;20935;42.660;23.342;2022-12-26T11:07:35;14.17;;;10.17;;
8048;SDS011;20935;42.660;23.342;2022-12-26T11:10:02;15.20;;;11.83;;
8048;SDS011;20935;42.660;23.342;2022-12-26T11:12:36;16.03;;;11.97;;
8048;SDS011;20935;42.660;23.342;2022-12-26T11:15:04;17.83;;;12.17;;
8048;SDS011;20935;42.660;23.342;2022-12-26T11:17:32;15.57;;;12.03;;
8048;SDS011;20935;42.660;23.342;2022-12-26T11:22:52;16.00;;;11.80;;
8048;SDS011;20935;42.660;23.342;2022-12-26T11:25:19;13.27;;;10.97;;
8048;SDS011;20935;42.660;23.342;2022-12-26T11:27:46;17.67;;;11.47;;
8048;SDS011;20935;42.660;23.342;2022-12-26T11:30:16;16.10;;;11.00;;
8048;SDS011;20935;42.660;23.342;2022-12-26T11:32:43;14.40;;;11.17;;
8048;SDS011;20935;42.660;23.342;2022-12-26T11:35:16;14.50;;;10.87;;
8048;SDS011;20935;42.660;23.342;2022-12-26T11:37:43;15.17;;;10.90;;
8048;SDS011;20935;42.660;23.342;2022-12-26T11:40:16;16.30;;;10.50;;
8048;SDS011;20935;42.660;23.342;2022-12-26T11:42:42;19.03;;;11.33;;
8048;SDS011;20935;42.660;23.342;2022-12-26T11:45:12;14.90;;;11.53;;
8048;SDS011;20935;42.660;23.342;2022-12-26T11:47:42;18.17;;;10.80;;
8048;SDS011;20935;42.660;23.342;2022-12-26T11:50:10;16.03;;;11.10;;
8048;SDS011;20935;42.660;23.342;2022-12-26T11:52:42;15.43;;;10.63;;
8048;SDS011;20935;42.660;23.342;2022-12-26T12:00:30;13.87;;;9.77;;
8048;SDS011;20935;42.660;23.342;2022-12-26T12:02:56;15.47;;;9.83;;
8048;SDS011;20935;42.660;23.342;2022-12-26T12:08:02;14.57;;;10.40;;
8048;SDS011;20935;42.660;23.342;2022-12-26T12:10:52;14.63;;;10.27;;
8048;SDS011;20935;42.660;23.342;2022-12-26T12:23:57;14.80;;;8.93;;
8048;SDS011;20935;42.660;23.342;2022-12-26T12:26:28;12.83;;;9.57;;
8048;SDS011;20935;42.660;23.342;2022-12-26T12:39:10;14.40;;;10.17;;
8048;SDS011;20935;42.660;23.342;2022-12-26T12:44:03;18.27;;;10.80;;
8048;SDS011;20935;42.660;23.342;2022-12-26T13:01:44;8.50;;;5.80;;
8048;SDS011;20935;42.660;23.342;2022-12-26T13:04:15;9.57;;;6.37;;
8048;SDS011;20935;42.660;23.342;2022-12-26T13:06:51;9.33;;;6.87;;
8048;SDS011;20935;42.660;23.342;2022-12-26T13:09:21;8.40;;;6.90;;
8048;SDS011;20935;42.660;23.342;2022-12-26T13:11:50;8.50;;;6.07;;
8048;SDS011;20935;42.660;23.342;2022-12-26T13:14:18;9.93;;;7.40;;
8048;SDS011;20935;42.660;23.342;2022-12-26T13:16:50;8.30;;;6.83;;
8048;SDS011;20935;42.660;23.342;2022-12-26T13:19:24;8.30;;;6.17;;
8048;SDS011;20935;42.660;23.342;2022-12-26T13:21:51;10.10;;;6.87;;
8048;SDS011;20935;42.660;23.342;2022-12-26T13:24:20;9.90;;;7.23;;
8048;SDS011;20935;42.660;23.342;2022-12-26T13:29:35;10.47;;;7.40;;
8048;SDS011;20935;42.660;23.342;2022-12-26T13:32:01;11.53;;;7.43;;
8048;SDS011;20935;42.660;23.342;2022-12-26T13:34:28;11.03;;;6.77;;
8048;SDS011;20935;42.660;23.342;2022-12-26T13:36:54;10.10;;;5.03;;
8048;SDS011;20935;42.660;23.342;2022-12-26T13:39:30;4.80;;;4.30;;
8048;SDS011;20935;42.660;23.342;2022-12-26T13:41:58;8.47;;;5.03;;
8048;SDS011;20935;42.660;23.342;2022-12-26T13:44:43;7.27;;;5.07;;
8048;SDS011;20935;42.660;23.342;2022-12-26T13:49:52;5.77;;;4.37;;
8048;SDS011;20935;42.660;23.342;2022-12-26T13:52:31;9.30;;;5.00;;
8048;SDS011;20935;42.660;23.342;2022-12-26T14:05:21;8.33;;;5.20;;
8048;SDS011;20935;42.660;23.342;2022-12-26T14:07:53;6.90;;;5.77;;
8048;SDS011;20935;42.660;23.342;2022-12-26T14:22:57;8.13;;;5.97;;
8048;SDS011;20935;42.660;23.342;2022-12-26T14:25:31;10.20;;;6.10;;
8048;SDS011;20935;42.660;23.342;2022-12-26T14:28:08;9.03;;;6.53;;
8048;SDS011;20935;42.660;23.342;2022-12-26T14:30:56;7.13;;;5.87;;
8048;SDS011;20935;42.660;23.342;2022-12-26T14:33:34;11.10;;;6.70;;
8048;SDS011;20935;42.660;23.342;2022-12-26T14:38:48;8.97;;;6.43;;
8048;SDS011;20935;42.660;23.342;2022-12-26T14:41:15;10.53;;;6.70;;
8048;SDS011;20935;42.660;23.342;2022-12-26T14:44:08;14.13;;;6.00;;
8048;SDS011;20935;42.660;23.342;2022-12-26T14:52:42;14.43;;;6.97;;
8048;SDS011;20935;42.660;23.342;2022-12-26T14:54:48;16.20;;;9.53;;
8048;SDS011;20935;42.660;23.342;2022-12-26T15:02:45;21.70;;;10.87;;
8048;SDS011;20935;42.660;23.342;2022-12-26T15:07:43;16.80;;;11.13;;
8048;SDS011;20935;42.660;23.342;2022-12-26T15:13:11;25.63;;;13.93;;
8048;SDS011;20935;42.660;23.342;2022-12-26T15:33:38;23.87;;;11.77;;
8048;SDS011;20935;42.660;23.342;2022-12-26T15:36:39;22.13;;;11.33;;
8048;SDS011;20935;42.660;23.342;2022-12-26T15:42:28;26.10;;;15.40;;
8048;SDS011;20935;42.660;23.342;2022-12-26T15:47:42;24.73;;;14.77;;
8048;SDS011;20935;42.660;23.342;2022-12-26T15:55:45;28.17;;;15.77;;
8048;SDS011;20935;42.660;23.342;2022-12-26T15:58:39;28.00;;;17.10;;
8048;SDS011;20935;42.660;23.342;2022-12-26T16:01:08;30.80;;;18.63;;
8048;SDS011;20935;42.660;23.342;2022-12-26T16:11:11;36.00;;;20.87;;
8048;SDS011;20935;42.660;23.342;2022-12-26T16:13:46;23.27;;;15.43;;
8048;SDS011;20935;42.660;23.342;2022-12-26T16:16:12;33.23;;;20.13;;
8048;SDS011;20935;42.660;23.342;2022-12-26T16:18:46;30.03;;;19.07;;
8048;SDS011;20935;42.660;23.342;2022-12-26T16:21:12;30.47;;;18.97;;
8048;SDS011;20935;42.660;23.342;2022-12-26T16:23:56;32.63;;;18.23;;
8048;SDS011;20935;42.660;23.342;2022-12-26T16:26:22;42.57;;;21.00;;
8048;SDS011;20935;42.660;23.342;2022-12-26T16:28:49;39.63;;;23.03;;
8048;SDS011;20935;42.660;23.342;2022-12-26T16:31:17;32.33;;;20.43;;
8048;SDS011;20935;42.660;23.342;2022-12-26T16:33:43;38.40;;;24.33;;
8048;SDS011;20935;42.660;23.342;2022-12-26T16:36:09;37.93;;;22.90;;
8048;SDS011;20935;42.660;23.342;2022-12-26T16:38:35;44.40;;;21.87;;
8048;SDS011;20935;42.660;23.342;2022-12-26T16:41:01;33.77;;;20.50;;
8048;SDS011;20935;42.660;23.342;2022-12-26T16:43:29;40.97;;;22.73;;
8048;SDS011;20935;42.660;23.342;2022-12-26T16:45:57;42.80;;;27.77;;
8048;SDS011;20935;42.660;23.342;2022-12-26T16:48:24;32.57;;;21.70;;
8048;SDS011;20935;42.660;23.342;2022-12-26T16:50:54;35.93;;;25.73;;
8048;SDS011;20935;42.660;23.342;2022-12-26T16:53:26;37.63;;;22.47;;
8048;SDS011;20935;42.660;23.342;2022-12-26T16:58:38;35.50;;;26.57;;
8048;SDS011;20935;42.660;23.342;2022-12-26T17:06:17;33.97;;;20.87;;
8048;SDS011;20935;42.660;23.342;2022-12-26T17:08:46;36.17;;;20.40;;
8048;SDS011;20935;42.660;23.342;2022-12-26T17:11:12;45.40;;;24.23;;
8048;SDS011;20935;42.660;23.342;2022-12-26T17:13:38;45.77;;;26.00;;
8048;SDS011;20935;42.660;23.342;2022-12-26T17:16:05;47.07;;;27.83;;
8048;SDS011;20935;42.660;23.342;2022-12-26T17:18:50;45.70;;;27.93;;
8048;SDS011;20935;42.660;23.342;2022-12-26T17:21:18;48.43;;;29.50;;
8048;SDS011;20935;42.660;23.342;2022-12-26T17:23:43;46.70;;;27.60;;
8048;SDS011;20935;42.660;23.342;2022-12-26T17:26:16;45.67;;;26.77;;
8048;SDS011;20935;42.660;23.342;2022-12-26T17:28:41;40.63;;;25.30;;
8048;SDS011;20935;42.660;23.342;2022-12-26T17:31:11;52.33;;;28.10;;
8048;SDS011;20935;42.660;23.342;2022-12-26T17:33:37;47.97;;;27.63;;
8048;SDS011;20935;42.660;23.342;2022-12-26T17:36:03;45.77;;;27.67;;
8048;SDS011;20935;42.660;23.342;2022-12-26T17:38:31;46.77;;;28.00;;
8048;SDS011;20935;42.660;23.342;2022-12-26T17:40:57;45.00;;;28.00;;
8048;SDS011;20935;42.660;23.342;2022-12-26T17:43:32;44.40;;;26.47;;
8048;SDS011;20935;42.660;23.342;2022-12-26T17:45:57;41.90;;;25.43;;
8048;SDS011;20935;42.660;23.342;2022-12-26T17:48:23;44.77;;;25.70;;
8048;SDS011;20935;42.660;23.342;2022-12-26T17:50:49;41.27;;;26.13;;
8048;SDS011;20935;42.660;23.342;2022-12-26T17:55:49;38.83;;;24.50;;
8048;SDS011;20935;42.660;23.342;2022-12-26T17:58:15;37.03;;;23.63;;
8048;SDS011;20935;42.660;23.342;2022-12-26T18:00:41;44.13;;;25.57;;
8048;SDS011;20935;42.660;23.342;2022-12-26T18:03:06;53.40;;;27.63;;
8048;SDS011;20935;42.660;23.342;2022-12-26T18:05:31;47.43;;;26.50;;
8048;SDS011;20935;42.660;23.342;2022-12-26T18:07:57;44.77;;;26.87;;
8048;SDS011;20935;42.660;23.342;2022-12-26T18:10:23;51.43;;;27.23;;
8048;SDS011;20935;42.660;23.342;2022-12-26T18:12:50;50.63;;;30.13;;
8048;SDS011;20935;42.660;23.342;2022-12-26T18:15:15;51.10;;;30.47;;
8048;SDS011;20935;42.660;23.342;2022-12-26T18:17:41;49.17;;;29.93;;